Metar Aviation Weather Data FACT Cape Town International

18°C Temp
16°C Dewpoint
88% Humidity
Temperature
19 KM/H
12 MPH
10 KTS
230°
South West

Wind Speed
Clear
Conditions
Pressure 1015 (hPa) - 29.97 (in)
Visibility 6.2 (mi) - 10.0 (km)

Current Conditions
FACT
Cape Town International
Metar :FACT 142000Z 23010KT CAVOK 18/16 Q1015 NOSIG
Wed 14th November 22:00 pm

Cape Town International
  Metar Aviation API Data Provided by https://www.checkwx.com/ PHP scripts by weather34.com ©2018